Time;durP1;ratioP1;P1;durP2;ratioP2;P2;SDS_P1;SDS_P2;PMS_P1;PMS_P2;Temp;Humidity;BMP_temperature;BMP_pressure;BME280_temperature;BME280_humidity;BME280_pressure;Samples;Min_cycle;Max_cycle;Signal;HPM_P1;HPM_P2
2023/12/07 00:01:04;;;;;;;12.60;8.07;;;;;;;;;;5073597;28;20064;-63
2023/12/07 00:03:30;;;;;;;11.93;7.85;;;;;;;;;;5074283;28;20403;-63
2023/12/07 00:05:56;;;;;;;12.98;7.75;;;;;;;;;;5073962;28;20120;-63
2023/12/07 00:08:22;;;;;;;14.05;8.40;;;;;;;;;;5074166;28;20049;-63
2023/12/07 00:10:48;;;;;;;11.98;8.07;;;;;;;;;;5073722;28;20461;-63
2023/12/07 00:13:14;;;;;;;13.95;8.23;;;;;;;;;;5073709;28;20515;-63
2023/12/07 00:15:40;;;;;;;12.70;7.75;;;;;;;;;;5073700;28;20048;-63
2023/12/07 00:18:06;;;;;;;12.90;7.70;;;;;;;;;;5073864;28;20041;-63
2023/12/07 00:20:32;;;;;;;12.38;8.20;;;;;;;;;;5055266;28;20404;-62
2023/12/07 00:22:58;;;;;;;11.82;7.60;;;;;;;;;;5073705;28;20032;-62
2023/12/07 00:25:24;;;;;;;14.00;8.38;;;;;;;;;;5073787;28;20526;-62
2023/12/07 00:27:51;;;;;;;11.88;8.32;;;;;;;;;;5073741;28;20038;-62
2023/12/07 00:30:17;;;;;;;11.90;8.02;;;;;;;;;;5073176;28;20045;-63
2023/12/07 00:32:43;;;;;;;12.75;8.27;;;;;;;;;;5073435;28;20113;-62
2023/12/07 00:35:10;;;;;;;14.38;7.70;;;;;;;;;;5073216;28;20400;-62
2023/12/07 00:37:36;;;;;;;16.63;8.48;;;;;;;;;;5073511;28;20568;-63
2023/12/07 00:40:02;;;;;;;12.48;8.07;;;;;;;;;;5071890;28;20048;-62
2023/12/07 00:42:28;;;;;;;13.23;8.05;;;;;;;;;;5073548;28;20037;-63
2023/12/07 00:44:55;;;;;;;13.63;8.43;;;;;;;;;;5073158;28;20044;-62
2023/12/07 00:47:21;;;;;;;15.88;8.93;;;;;;;;;;5071400;28;20131;-62
2023/12/07 00:49:47;;;;;;;14.82;8.35;;;;;;;;;;5073182;28;20040;-62
2023/12/07 00:52:13;;;;;;;11.82;7.93;;;;;;;;;;5073057;28;20408;-62
2023/12/07 00:54:39;;;;;;;15.27;8.27;;;;;;;;;;5073266;28;20040;-62
2023/12/07 00:57:06;;;;;;;12.90;8.32;;;;;;;;;;5072731;28;20040;-62
2023/12/07 00:59:33;;;;;;;13.48;8.30;;;;;;;;;;5073191;28;20043;-63
2023/12/07 01:02:03;;;;;;;14.98;8.70;;;;;;;;;;5072163;28;20047;-63
2023/12/07 01:04:29;;;;;;;12.63;7.80;;;;;;;;;;5072827;28;20036;-62
2023/12/07 01:06:55;;;;;;;14.80;8.52;;;;;;;;;;5072241;28;20044;-62
2023/12/07 01:09:21;;;;;;;12.32;8.45;;;;;;;;;;5072967;28;20043;-62
2023/12/07 01:11:48;;;;;;;12.88;8.73;;;;;;;;;;5072715;28;20032;-62
2023/12/07 01:14:14;;;;;;;12.60;8.45;;;;;;;;;;5072622;28;20037;-62
2023/12/07 01:16:40;;;;;;;16.40;9.07;;;;;;;;;;5072337;28;20105;-63
2023/12/07 01:19:07;;;;;;;15.63;9.63;;;;;;;;;;5072751;28;20040;-62
2023/12/07 01:21:33;;;;;;;14.35;9.00;;;;;;;;;;5086480;22;20040;-64
2023/12/07 01:23:59;;;;;;;15.30;9.25;;;;;;;;;;5060437;28;20466;-65
2023/12/07 01:26:25;;;;;;;14.88;9.05;;;;;;;;;;5065876;28;20113;-64
2023/12/07 01:28:51;;;;;;;14.10;9.30;;;;;;;;;;5054145;28;20067;-64
2023/12/07 01:31:17;;;;;;;17.58;9.07;;;;;;;;;;5065566;28;20093;-65
2023/12/07 01:33:43;;;;;;;18.15;10.00;;;;;;;;;;5065071;28;20492;-64
2023/12/07 01:36:09;;;;;;;16.38;9.30;;;;;;;;;;5048916;28;20082;-64
2023/12/07 01:38:35;;;;;;;16.00;10.00;;;;;;;;;;5068007;28;20041;-65
2023/12/07 01:41:02;;;;;;;15.38;9.35;;;;;;;;;;5071202;28;20178;-65
2023/12/07 01:43:28;;;;;;;16.50;10.68;;;;;;;;;;5071544;28;20071;-64
2023/12/07 01:45:56;;;;;;;16.48;9.00;;;;;;;;;;5064211;28;20040;-64
2023/12/07 01:48:23;;;;;;;15.82;9.85;;;;;;;;;;5063278;28;20036;-65
2023/12/07 01:50:49;;;;;;;17.02;10.38;;;;;;;;;;5069741;28;20512;-64
2023/12/07 01:53:15;;;;;;;16.45;10.02;;;;;;;;;;5070386;28;20037;-64
2023/12/07 01:55:42;;;;;;;16.70;10.60;;;;;;;;;;5064726;28;20095;-64
2023/12/07 01:58:08;;;;;;;17.95;10.13;;;;;;;;;;5064313;28;20039;-65
2023/12/07 02:00:34;;;;;;;16.50;10.40;;;;;;;;;;5070219;28;20048;-64
2023/12/07 02:03:05;;;;;;;19.42;10.57;;;;;;;;;;5070358;28;20405;-65
2023/12/07 02:05:32;;;;;;;20.47;11.03;;;;;;;;;;5065136;28;20459;-64
2023/12/07 02:07:58;;;;;;;21.05;11.55;;;;;;;;;;5062716;28;20313;-64
2023/12/07 02:10:24;;;;;;;21.10;11.70;;;;;;;;;;5065398;28;20381;-65
2023/12/07 02:12:51;;;;;;;23.80;12.50;;;;;;;;;;5059457;28;20109;-64
2023/12/07 02:15:17;;;;;;;21.35;11.82;;;;;;;;;;5061961;28;20250;-65
2023/12/07 02:17:43;;;;;;;21.67;12.15;;;;;;;;;;5069674;28;20040;-64
2023/12/07 02:20:14;;;;;;;20.15;11.73;;;;;;;;;;5070293;28;20086;-64
2023/12/07 02:22:43;;;;;;;18.70;11.95;;;;;;;;;;5070220;28;20142;-64
2023/12/07 02:25:10;;;;;;;22.15;11.68;;;;;;;;;;5060805;28;20079;-65
2023/12/07 02:27:36;;;;;;;20.55;12.27;;;;;;;;;;5063654;28;20044;-64
2023/12/07 02:30:02;;;;;;;21.27;12.13;;;;;;;;;;5068614;28;20396;-65
2023/12/07 02:32:28;;;;;;;23.10;12.05;;;;;;;;;;5070780;28;20090;-64
2023/12/07 02:34:54;;;;;;;19.45;11.43;;;;;;;;;;5069814;28;20458;-64
2023/12/07 02:37:21;;;;;;;20.50;12.10;;;;;;;;;;5063036;28;20036;-65
2023/12/07 02:39:48;;;;;;;20.48;12.05;;;;;;;;;;5070340;28;20041;-65
2023/12/07 02:42:15;;;;;;;22.05;11.73;;;;;;;;;;5067420;28;20166;-64
2023/12/07 02:44:41;;;;;;;20.85;12.05;;;;;;;;;;5069909;28;20051;-65
2023/12/07 02:47:07;;;;;;;21.92;12.23;;;;;;;;;;5070175;28;20037;-64
2023/12/07 02:49:33;;;;;;;23.08;12.70;;;;;;;;;;5069339;28;20098;-64
2023/12/07 02:51:59;;;;;;;18.70;11.82;;;;;;;;;;5068682;28;20044;-64
2023/12/07 02:54:25;;;;;;;21.08;11.68;;;;;;;;;;5065145;28;20048;-65
2023/12/07 02:56:51;;;;;;;21.92;12.60;;;;;;;;;;5069777;28;20105;-65
2023/12/07 02:59:17;;;;;;;19.52;11.82;;;;;;;;;;5065657;28;20036;-64
2023/12/07 03:01:43;;;;;;;22.15;12.18;;;;;;;;;;5063830;28;20373;-63
2023/12/07 03:04:09;;;;;;;23.80;12.93;;;;;;;;;;5070499;28;20119;-64
2023/12/07 03:06:35;;;;;;;20.30;11.98;;;;;;;;;;5071542;28;20043;-64
2023/12/07 03:09:01;;;;;;;22.27;12.73;;;;;;;;;;5071658;28;20063;-62
2023/12/07 03:11:27;;;;;;;20.40;12.65;;;;;;;;;;5066831;28;20043;-64
2023/12/07 03:13:53;;;;;;;23.08;13.25;;;;;;;;;;5072210;28;20028;-64
2023/12/07 03:16:20;;;;;;;22.83;13.23;;;;;;;;;;5074074;28;20115;-63
2023/12/07 03:18:46;;;;;;;22.85;13.25;;;;;;;;;;5067401;28;20389;-64
2023/12/07 03:21:12;;;;;;;19.15;11.82;;;;;;;;;;5073069;28;20105;-64
2023/12/07 03:23:38;;;;;;;21.33;12.40;;;;;;;;;;5060362;28;20392;-64
2023/12/07 03:26:04;;;;;;;20.65;11.73;;;;;;;;;;5071019;28;20128;-64
2023/12/07 03:28:30;;;;;;;21.10;11.93;;;;;;;;;;5073421;28;20040;-64
2023/12/07 03:30:56;;;;;;;20.30;11.38;;;;;;;;;;5068546;28;20051;-63
2023/12/07 03:33:22;;;;;;;20.98;12.85;;;;;;;;;;5073951;28;20499;-63
2023/12/07 03:35:49;;;;;;;21.80;12.23;;;;;;;;;;5073779;28;20043;-64
2023/12/07 03:38:15;;;;;;;20.90;11.60;;;;;;;;;;5063582;28;20373;-63
2023/12/07 03:40:41;;;;;;;19.40;11.02;;;;;;;;;;5063150;28;20099;-63
2023/12/07 03:43:07;;;;;;;20.00;12.23;;;;;;;;;;5066734;28;20452;-63
2023/12/07 03:45:33;;;;;;;20.85;12.18;;;;;;;;;;5065110;28;20036;-63
2023/12/07 03:47:59;;;;;;;21.35;12.27;;;;;;;;;;5073200;28;20036;-63
2023/12/07 03:50:25;;;;;;;21.02;12.63;;;;;;;;;;5069611;28;20614;-63
2023/12/07 03:52:51;;;;;;;20.15;11.63;;;;;;;;;;5064217;28;20106;-62
2023/12/07 03:55:17;;;;;;;21.42;12.18;;;;;;;;;;5073833;28;20048;-63
2023/12/07 03:57:43;;;;;;;23.15;13.00;;;;;;;;;;5066449;28;20037;-62
2023/12/07 04:00:11;;;;;;;22.92;12.35;;;;;;;;;;5069930;28;20036;-62
2023/12/07 04:02:37;;;;;;;20.73;11.82;;;;;;;;;;5072154;28;20488;-63
2023/12/07 04:05:03;;;;;;;20.30;11.20;;;;;;;;;;5064845;28;20098;-62
2023/12/07 04:07:29;;;;;;;21.88;12.15;;;;;;;;;;5062872;28;20045;-63
2023/12/07 04:09:57;;;;;;;23.13;12.57;;;;;;;;;;5069275;28;20048;-60
2023/12/07 04:12:23;;;;;;;20.45;12.35;;;;;;;;;;5070334;28;20093;-62
2023/12/07 04:14:51;;;;;;;20.83;11.93;;;;;;;;;;5072662;28;20051;-62
2023/12/07 04:17:17;;;;;;;23.05;12.60;;;;;;;;;;5057592;28;20485;-62
2023/12/07 04:19:43;;;;;;;21.48;11.75;;;;;;;;;;5061610;28;20041;-62
2023/12/07 04:22:09;;;;;;;26.67;13.40;;;;;;;;;;5058854;28;20032;-62
2023/12/07 04:24:35;;;;;;;25.02;12.93;;;;;;;;;;5063534;28;20032;-62
2023/12/07 04:27:01;;;;;;;25.88;13.32;;;;;;;;;;5072347;28;20039;-62
2023/12/07 04:29:27;;;;;;;24.25;13.73;;;;;;;;;;5067316;28;20493;-62
2023/12/07 04:31:53;;;;;;;28.80;13.98;;;;;;;;;;5071151;28;20028;-62
2023/12/07 04:34:19;;;;;;;24.15;13.57;;;;;;;;;;5072625;28;20444;-62
2023/12/07 04:36:45;;;;;;;28.85;14.85;;;;;;;;;;5073185;28;20041;-62
2023/12/07 04:39:12;;;;;;;26.85;14.82;;;;;;;;;;5072175;28;20481;-62
2023/12/07 04:41:38;;;;;;;27.70;14.48;;;;;;;;;;5070481;28;20047;-63
2023/12/07 04:44:04;;;;;;;28.98;14.15;;;;;;;;;;5070145;28;20037;-62
2023/12/07 04:46:30;;;;;;;28.98;15.80;;;;;;;;;;5065663;28;20040;-61
2023/12/07 04:48:56;;;;;;;26.88;14.63;;;;;;;;;;5072001;28;20094;-62
2023/12/07 04:51:22;;;;;;;31.58;15.30;;;;;;;;;;5060338;28;20120;-62
2023/12/07 04:53:48;;;;;;;28.27;15.57;;;;;;;;;;5070429;28;20119;-61
2023/12/07 04:56:14;;;;;;;33.60;16.23;;;;;;;;;;5066452;28;20464;-62
2023/12/07 04:58:40;;;;;;;31.58;16.52;;;;;;;;;;5065393;28;20076;-61
2023/12/07 05:01:06;;;;;;;27.27;15.40;;;;;;;;;;5067283;28;20040;-61
2023/12/07 05:03:32;;;;;;;29.85;16.17;;;;;;;;;;5071792;28;20039;-61
2023/12/07 05:05:59;;;;;;;27.98;15.27;;;;;;;;;;5063058;28;20028;-61
2023/12/07 05:08:25;;;;;;;29.90;15.88;;;;;;;;;;5071407;28;20048;-62
2023/12/07 05:10:51;;;;;;;29.40;15.43;;;;;;;;;;5071094;28;20040;-61
2023/12/07 05:13:17;;;;;;;30.48;15.85;;;;;;;;;;5065718;28;20578;-62
2023/12/07 05:15:43;;;;;;;28.48;15.32;;;;;;;;;;5065935;28;20048;-62
2023/12/07 05:18:09;;;;;;;27.70;15.10;;;;;;;;;;5062313;28;20037;-61
2023/12/07 05:20:38;;;;;;;25.58;14.23;;;;;;;;;;5064509;28;20086;-61
2023/12/07 05:23:04;;;;;;;29.90;15.65;;;;;;;;;;5063481;28;20041;-62
2023/12/07 05:25:31;;;;;;;27.33;14.75;;;;;;;;;;5060418;28;20496;-62
2023/12/07 05:27:57;;;;;;;27.95;15.85;;;;;;;;;;5064251;28;20158;-61
2023/12/07 05:30:23;;;;;;;27.42;15.10;;;;;;;;;;5071326;28;20119;-61
2023/12/07 05:32:50;;;;;;;26.50;14.68;;;;;;;;;;5064312;28;20039;-61
2023/12/07 05:35:16;;;;;;;26.80;14.40;;;;;;;;;;5067447;28;20420;-62
2023/12/07 05:37:42;;;;;;;25.98;14.82;;;;;;;;;;5064775;28;20035;-61
2023/12/07 05:40:09;;;;;;;29.85;14.52;;;;;;;;;;5071316;28;20044;-61
2023/12/07 05:42:35;;;;;;;25.08;14.85;;;;;;;;;;5071410;28;20048;-62
2023/12/07 05:45:01;;;;;;;26.48;15.02;;;;;;;;;;5068525;28;20036;-61
2023/12/07 05:47:27;;;;;;;25.85;14.23;;;;;;;;;;5070558;28;20051;-62
2023/12/07 05:49:53;;;;;;;23.83;14.13;;;;;;;;;;5070008;28;20041;-62
2023/12/07 05:52:19;;;;;;;25.98;14.57;;;;;;;;;;5063434;28;20041;-62
2023/12/07 05:54:46;;;;;;;28.17;14.73;;;;;;;;;;5070892;28;20438;-61
2023/12/07 05:57:13;;;;;;;25.38;13.60;;;;;;;;;;5069682;28;20048;-61
2023/12/07 05:59:41;;;;;;;24.10;14.32;;;;;;;;;;5070082;28;20037;-61
2023/12/07 06:02:07;;;;;;;26.83;14.32;;;;;;;;;;5065593;28;20405;-62
2023/12/07 06:04:33;;;;;;;27.92;15.60;;;;;;;;;;5070040;28;20111;-63
2023/12/07 06:06:59;;;;;;;25.70;14.80;;;;;;;;;;5063706;28;20915;-61
2023/12/07 06:09:25;;;;;;;27.25;15.13;;;;;;;;;;5069910;28;20096;-62
2023/12/07 06:11:51;;;;;;;25.88;14.88;;;;;;;;;;5070788;28;20123;-62
2023/12/07 06:14:17;;;;;;;27.15;14.75;;;;;;;;;;5068239;28;20033;-61
2023/12/07 06:16:43;;;;;;;26.65;14.90;;;;;;;;;;5070083;28;20029;-61
2023/12/07 06:19:09;;;;;;;27.83;15.40;;;;;;;;;;5050539;28;20081;-61
2023/12/07 06:21:35;;;;;;;25.52;14.35;;;;;;;;;;5069713;28;20477;-60
2023/12/07 06:24:01;;;;;;;24.20;14.20;;;;;;;;;;5052439;28;20044;-61
2023/12/07 06:26:27;;;;;;;26.10;14.52;;;;;;;;;;5067092;28;20078;-62
2023/12/07 06:28:53;;;;;;;25.20;14.20;;;;;;;;;;5070119;28;20117;-61
2023/12/07 06:31:21;;;;;;;24.88;13.38;;;;;;;;;;5068776;28;20037;-61
2023/12/07 06:33:47;;;;;;;21.80;12.63;;;;;;;;;;5052820;28;20048;-61
2023/12/07 06:36:19;;;;;;;24.17;12.88;;;;;;;;;;5071140;28;20055;-61
2023/12/07 06:38:45;;;;;;;26.58;13.45;;;;;;;;;;5064281;28;20036;-59
2023/12/07 06:41:11;;;;;;;26.40;13.90;;;;;;;;;;5058401;28;20041;-61
2023/12/07 06:43:37;;;;;;;23.80;13.25;;;;;;;;;;5061298;28;20038;-60
2023/12/07 06:46:03;;;;;;;24.50;12.23;;;;;;;;;;5047343;28;20104;-61
2023/12/07 06:48:29;;;;;;;24.63;13.57;;;;;;;;;;5049032;28;20098;-62
2023/12/07 06:50:55;;;;;;;24.08;13.75;;;;;;;;;;5057753;28;20890;-61
2023/12/07 06:53:21;;;;;;;23.88;13.57;;;;;;;;;;5050682;28;20093;-60
2023/12/07 06:55:47;;;;;;;28.77;15.27;;;;;;;;;;5061874;28;20041;-60
2023/12/07 06:58:13;;;;;;;26.15;14.13;;;;;;;;;;5068315;28;20040;-60
2023/12/07 07:00:39;;;;;;;26.10;14.32;;;;;;;;;;5068022;28;20039;-61
2023/12/07 07:03:06;;;;;;;26.63;13.52;;;;;;;;;;5064061;28;20037;-61
2023/12/07 07:05:32;;;;;;;26.55;14.63;;;;;;;;;;5070238;28;20036;-61
2023/12/07 07:07:58;;;;;;;26.42;14.77;;;;;;;;;;5063183;28;20078;-60
2023/12/07 07:10:24;;;;;;;26.98;14.98;;;;;;;;;;5065853;28;20074;-60
2023/12/07 07:12:50;;;;;;;25.13;14.60;;;;;;;;;;5067275;28;20040;-60
2023/12/07 07:15:16;;;;;;;28.10;15.93;;;;;;;;;;5064969;28;20048;-61
2023/12/07 07:17:42;;;;;;;28.10;15.70;;;;;;;;;;5069982;28;20055;-61
2023/12/07 07:20:08;;;;;;;30.50;16.00;;;;;;;;;;5068829;28;20040;-60
2023/12/07 07:22:34;;;;;;;30.42;16.55;;;;;;;;;;5124797;22;20040;-68
2023/12/07 07:25:00;;;;;;;29.55;16.15;;;;;;;;;;5084847;28;20044;-67
2023/12/07 07:27:26;;;;;;;27.73;15.43;;;;;;;;;;5069653;28;20060;-67
2023/12/07 07:29:52;;;;;;;31.25;16.23;;;;;;;;;;5071699;28;20032;-67
2023/12/07 07:32:18;;;;;;;31.83;16.75;;;;;;;;;;5074144;28;20111;-67
2023/12/07 07:34:44;;;;;;;30.02;15.73;;;;;;;;;;5074650;28;20033;-68
2023/12/07 07:37:10;;;;;;;34.25;18.33;;;;;;;;;;5073352;28;20029;-67
2023/12/07 07:39:36;;;;;;;30.95;16.90;;;;;;;;;;5070633;28;20036;-67
2023/12/07 07:42:02;;;;;;;29.17;15.45;;;;;;;;;;5069450;28;20037;-67
2023/12/07 07:44:28;;;;;;;27.75;16.65;;;;;;;;;;5073473;28;20119;-67
2023/12/07 07:46:54;;;;;;;33.83;17.63;;;;;;;;;;5073516;28;20437;-67
2023/12/07 07:49:20;;;;;;;33.72;17.88;;;;;;;;;;5072718;28;20055;-67
2023/12/07 07:51:46;;;;;;;33.08;17.55;;;;;;;;;;5072846;28;20364;-67
2023/12/07 07:54:12;;;;;;;30.73;17.73;;;;;;;;;;5069797;28;20061;-67
2023/12/07 07:56:38;;;;;;;30.52;17.83;;;;;;;;;;5073706;28;20040;-67
2023/12/07 07:59:04;;;;;;;32.75;16.55;;;;;;;;;;5071418;28;20394;-67
2023/12/07 08:01:30;;;;;;;31.75;18.35;;;;;;;;;;5066866;28;20036;-67
2023/12/07 08:03:56;;;;;;;31.00;17.25;;;;;;;;;;5070595;28;20502;-67
2023/12/07 08:06:22;;;;;;;34.42;19.55;;;;;;;;;;5072159;28;20449;-67
2023/12/07 08:08:49;;;;;;;33.40;18.88;;;;;;;;;;5072012;28;20041;-67
2023/12/07 08:11:15;;;;;;;36.17;19.45;;;;;;;;;;5071458;28;20406;-67
2023/12/07 08:13:41;;;;;;;37.58;19.23;;;;;;;;;;5074003;28;20036;-67
2023/12/07 08:16:10;;;;;;;35.85;19.50;;;;;;;;;;5063934;28;20044;-67
2023/12/07 08:18:36;;;;;;;37.00;19.83;;;;;;;;;;5071536;28;20040;-68
2023/12/07 08:21:02;;;;;;;39.50;20.42;;;;;;;;;;5072551;28;20132;-68
2023/12/07 08:23:28;;;;;;;35.63;20.08;;;;;;;;;;5069054;28;20041;-68
2023/12/07 08:25:57;;;;;;;39.13;21.27;;;;;;;;;;5066036;28;20029;-68
2023/12/07 08:28:23;;;;;;;42.17;21.50;;;;;;;;;;5071988;28;20386;-68
2023/12/07 08:30:49;;;;;;;36.72;20.33;;;;;;;;;;5073124;28;20040;-68
2023/12/07 08:33:15;;;;;;;37.97;21.02;;;;;;;;;;5072298;28;20499;-68
2023/12/07 08:35:40;;;;;;;41.20;21.45;;;;;;;;;;5074181;28;20067;-68
2023/12/07 08:38:06;;;;;;;40.05;20.02;;;;;;;;;;5066371;28;20046;-68
2023/12/07 08:40:32;;;;;;;43.20;21.33;;;;;;;;;;5073298;28;20036;-68
2023/12/07 08:42:58;;;;;;;43.47;22.20;;;;;;;;;;5075009;28;20445;-68
2023/12/07 08:45:24;;;;;;;37.85;20.05;;;;;;;;;;5071495;28;20076;-68
2023/12/07 08:47:50;;;;;;;41.70;19.42;;;;;;;;;;5070773;28;20487;-68
2023/12/07 08:50:16;;;;;;;54.90;17.88;;;;;;;;;;5071007;28;20131;-68
2023/12/07 08:52:42;;;;;;;52.45;17.02;;;;;;;;;;5063359;28;20124;-69
2023/12/07 08:55:08;;;;;;;49.40;16.80;;;;;;;;;;5070478;28;20051;-69
2023/12/07 08:57:34;;;;;;;99.68;19.40;;;;;;;;;;5071842;28;20041;-68
2023/12/07 09:00:00;;;;;;;88.85;18.15;;;;;;;;;;5069650;28;20402;-68
2023/12/07 09:02:26;;;;;;;69.68;16.52;;;;;;;;;;5067676;28;20032;-68
2023/12/07 09:04:52;;;;;;;73.35;18.05;;;;;;;;;;5068401;28;20083;-68
2023/12/07 09:07:18;;;;;;;84.35;19.15;;;;;;;;;;5067274;28;20084;-68
2023/12/07 09:09:47;;;;;;;68.38;17.30;;;;;;;;;;5070931;28;20033;-68
2023/12/07 09:12:14;;;;;;;67.88;17.02;;;;;;;;;;5070304;28;20051;-68
2023/12/07 09:14:40;;;;;;;57.75;15.73;;;;;;;;;;5068098;28;20506;-68
2023/12/07 09:17:06;;;;;;;58.33;15.93;;;;;;;;;;5071563;28;20039;-68
2023/12/07 09:19:32;;;;;;;64.03;16.58;;;;;;;;;;5071558;28;20032;-68
2023/12/07 09:21:58;;;;;;;86.85;17.73;;;;;;;;;;5071483;28;20128;-68
2023/12/07 09:24:24;;;;;;;55.13;15.00;;;;;;;;;;5069109;28;20487;-68
2023/12/07 09:26:50;;;;;;;70.05;16.55;;;;;;;;;;5071524;28;20074;-68
2023/12/07 09:29:16;;;;;;;54.75;15.85;;;;;;;;;;5071569;28;20044;-68
2023/12/07 09:31:42;;;;;;;59.00;16.40;;;;;;;;;;5068538;28;20039;-68
2023/12/07 09:34:08;;;;;;;52.53;15.10;;;;;;;;;;5071460;28;20037;-68
2023/12/07 09:36:34;;;;;;;105.75;19.17;;;;;;;;;;5071652;28;20456;-68
2023/12/07 09:39:00;;;;;;;53.45;16.58;;;;;;;;;;5071160;28;20090;-68
2023/12/07 09:41:27;;;;;;;75.63;18.42;;;;;;;;;;5070190;28;20029;-68
2023/12/07 09:43:53;;;;;;;81.25;19.25;;;;;;;;;;5071296;28;20544;-68
2023/12/07 09:46:19;;;;;;;77.80;20.27;;;;;;;;;;5070876;28;20051;-68
2023/12/07 09:48:48;;;;;;;99.13;21.08;;;;;;;;;;5066701;28;20044;-68
2023/12/07 09:51:15;;;;;;;90.75;21.92;;;;;;;;;;5071222;28;20360;-68
2023/12/07 09:53:43;;;;;;;85.47;19.88;;;;;;;;;;5071489;28;20044;-68
2023/12/07 09:56:10;;;;;;;78.53;19.88;;;;;;;;;;5071181;28;20043;-69
2023/12/07 09:58:36;;;;;;;107.63;21.90;;;;;;;;;;5070813;28;20150;-69
2023/12/07 10:01:02;;;;;;;90.63;19.40;;;;;;;;;;5069795;28;20509;-69
2023/12/07 10:03:30;;;;;;;103.82;21.02;;;;;;;;;;5068554;28;20037;-69
2023/12/07 10:05:57;;;;;;;78.80;19.50;;;;;;;;;;5069965;28;20048;-69
2023/12/07 10:08:41;;;;;;;81.57;20.38;;;;;;;;;;5067409;28;20048;-68
2023/12/07 10:11:08;;;;;;;85.35;19.65;;;;;;;;;;5066442;28;20188;-68
2023/12/07 10:13:35;;;;;;;92.53;21.13;;;;;;;;;;5070990;28;20505;-68
2023/12/07 10:16:15;;;;;;;67.50;20.60;;;;;;;;;;5059308;28;20123;-68
2023/12/07 10:18:41;;;;;;;92.55;19.90;;;;;;;;;;5066273;28;20181;-68
2023/12/07 10:21:11;;;;;;;84.68;20.70;;;;;;;;;;5064977;28;20116;-68
2023/12/07 10:23:37;;;;;;;89.47;20.85;;;;;;;;;;5068024;28;20090;-68
2023/12/07 10:26:05;;;;;;;71.88;19.48;;;;;;;;;;5069053;28;20064;-70
2023/12/07 10:28:31;;;;;;;85.95;20.00;;;;;;;;;;5066001;28;20549;-69
2023/12/07 10:30:58;;;;;;;72.43;20.13;;;;;;;;;;5070501;28;20115;-69
2023/12/07 10:33:24;;;;;;;99.20;21.33;;;;;;;;;;5067752;28;20051;-69
2023/12/07 10:35:50;;;;;;;86.38;21.30;;;;;;;;;;5067394;28;20037;-69
2023/12/07 10:38:17;;;;;;;92.45;20.55;;;;;;;;;;5066006;28;20506;-69
2023/12/07 10:40:43;;;;;;;94.47;22.00;;;;;;;;;;5062962;28;20506;-69
2023/12/07 10:43:09;;;;;;;81.43;19.95;;;;;;;;;;5070401;28;20040;-69
2023/12/07 10:45:39;;;;;;;97.93;23.00;;;;;;;;;;5067866;28;20529;-69
2023/12/07 10:48:08;;;;;;;83.28;22.50;;;;;;;;;;5062344;28;20040;-69
2023/12/07 10:50:35;;;;;;;78.57;22.17;;;;;;;;;;5070136;28;20036;-69
2023/12/07 10:53:10;;;;;;;155.77;25.17;;;;;;;;;;5061226;28;20473;-69
2023/12/07 10:55:39;;;;;;;80.15;20.70;;;;;;;;;;5066299;28;20488;-69
2023/12/07 10:58:07;;;;;;;79.72;21.23;;;;;;;;;;5066439;28;20032;-69
2023/12/07 11:00:33;;;;;;;103.60;21.67;;;;;;;;;;5064743;28;20036;-69
2023/12/07 11:02:59;;;;;;;115.97;20.85;;;;;;;;;;5062688;28;20444;-69
2023/12/07 11:05:25;;;;;;;118.28;23.23;;;;;;;;;;5062119;28;20024;-69
2023/12/07 11:08:06;;;;;;;118.75;21.63;;;;;;;;;;5064310;28;20124;-69
2023/12/07 11:10:36;;;;;;;105.90;21.42;;;;;;;;;;5070327;28;20483;-69
2023/12/07 11:13:21;;;;;;;109.82;23.30;;;;;;;;;;5062483;28;20129;-69
2023/12/07 11:15:47;;;;;;;67.55;22.35;;;;;;;;;;5066193;28;20079;-69
2023/12/07 11:18:13;;;;;;;104.25;23.02;;;;;;;;;;5067917;28;20076;-69
2023/12/07 11:20:44;;;;;;;111.50;24.38;;;;;;;;;;5064772;28;20044;-69
2023/12/07 11:23:10;;;;;;;97.17;24.53;;;;;;;;;;5063084;28;20033;-69
2023/12/07 11:25:37;;;;;;;86.63;22.27;;;;;;;;;;5062855;28;20356;-69
2023/12/07 11:28:04;;;;;;;131.02;27.48;;;;;;;;;;5060721;28;20040;-69
2023/12/07 11:30:33;;;;;;;89.03;21.73;;;;;;;;;;5058517;28;20048;-69
2023/12/07 11:33:00;;;;;;;101.32;22.50;;;;;;;;;;5049842;28;20045;-69
2023/12/07 11:35:26;;;;;;;82.22;21.80;;;;;;;;;;5061028;28;20082;-69
2023/12/07 11:38:06;;;;;;;99.90;23.67;;;;;;;;;;5065736;28;20040;-69
2023/12/07 11:40:32;;;;;;;80.35;20.27;;;;;;;;;;5062861;28;20542;-69
2023/12/07 11:42:59;;;;;;;66.13;22.70;;;;;;;;;;5061817;28;20075;-69
2023/12/07 11:45:38;;;;;;;56.80;21.63;;;;;;;;;;5064615;28;20064;-69
2023/12/07 11:48:12;;;;;;;62.13;22.40;;;;;;;;;;5062590;28;20616;-69
2023/12/07 11:50:56;;;;;;;66.72;22.13;;;;;;;;;;5065923;28;20332;-69
2023/12/07 11:53:24;;;;;;;71.03;22.25;;;;;;;;;;5062287;28;20075;-69
2023/12/07 11:55:50;;;;;;;84.65;23.05;;;;;;;;;;5066562;28;20040;-69
2023/12/07 11:58:16;;;;;;;71.28;20.92;;;;;;;;;;5066490;28;20052;-69
2023/12/07 12:00:42;;;;;;;58.17;22.42;;;;;;;;;;5064893;28;20163;-69
2023/12/07 12:03:08;;;;;;;70.22;23.33;;;;;;;;;;5067904;28;20472;-68
2023/12/07 12:05:34;;;;;;;64.53;24.35;;;;;;;;;;5064724;28;20032;-68
2023/12/07 12:08:00;;;;;;;68.10;23.42;;;;;;;;;;5062411;28;20519;-68
2023/12/07 12:10:26;;;;;;;69.38;24.30;;;;;;;;;;5062218;28;20043;-68
2023/12/07 12:12:54;;;;;;;77.93;24.52;;;;;;;;;;5068769;28;20505;-68
2023/12/07 12:15:20;;;;;;;76.13;25.05;;;;;;;;;;5063830;28;20036;-68
2023/12/07 12:17:46;;;;;;;87.40;26.88;;;;;;;;;;5068919;28;20048;-68
2023/12/07 12:20:17;;;;;;;88.72;25.13;;;;;;;;;;5057575;28;20041;-68
2023/12/07 12:22:43;;;;;;;93.32;26.90;;;;;;;;;;5071406;28;20040;-68
2023/12/07 12:25:10;;;;;;;92.18;25.10;;;;;;;;;;5072783;28;20094;-68
2023/12/07 12:27:36;;;;;;;85.45;25.35;;;;;;;;;;5063537;28;20098;-68
2023/12/07 12:30:03;;;;;;;101.97;26.13;;;;;;;;;;5066937;28;20036;-68
2023/12/07 12:32:33;;;;;;;95.35;25.92;;;;;;;;;;5061015;28;20048;-68
2023/12/07 12:34:59;;;;;;;99.72;25.23;;;;;;;;;;5065726;28;20070;-68
2023/12/07 12:37:25;;;;;;;98.97;26.92;;;;;;;;;;5064551;28;20071;-68
2023/12/07 12:39:51;;;;;;;91.45;24.52;;;;;;;;;;5054467;28;20037;-68
2023/12/07 12:42:17;;;;;;;114.82;25.42;;;;;;;;;;5059960;28;20040;-68
2023/12/07 12:44:44;;;;;;;87.13;24.48;;;;;;;;;;5064583;28;20064;-68
2023/12/07 12:47:10;;;;;;;85.80;24.88;;;;;;;;;;5067931;28;20036;-68
2023/12/07 12:49:37;;;;;;;99.80;25.63;;;;;;;;;;5066082;28;20051;-68
2023/12/07 12:52:04;;;;;;;95.25;26.67;;;;;;;;;;5072208;28;20043;-68
2023/12/07 12:54:32;;;;;;;107.20;28.30;;;;;;;;;;5070298;28;20581;-68
2023/12/07 12:56:59;;;;;;;116.85;29.63;;;;;;;;;;5066170;28;20139;-68
2023/12/07 12:59:25;;;;;;;98.60;27.50;;;;;;;;;;5067771;28;20044;-68
2023/12/07 13:01:51;;;;;;;99.15;26.02;;;;;;;;;;5069544;28;20033;-68
2023/12/07 13:04:17;;;;;;;97.63;26.48;;;;;;;;;;5066194;28;20075;-68
2023/12/07 13:06:43;;;;;;;80.18;21.80;;;;;;;;;;5063021;28;20529;-68
2023/12/07 13:09:09;;;;;;;110.20;26.67;;;;;;;;;;5067345;28;20037;-68
2023/12/07 13:11:35;;;;;;;94.57;24.95;;;;;;;;;;5064392;28;20038;-68
2023/12/07 13:14:06;;;;;;;93.60;26.75;;;;;;;;;;5063348;28;20047;-68
2023/12/07 13:16:32;;;;;;;106.40;26.30;;;;;;;;;;5064566;28;20045;-68
2023/12/07 13:18:58;;;;;;;100.35;26.33;;;;;;;;;;5072003;28;20159;-69
2023/12/07 13:23:54;;;;;;;123.55;29.23;;;;;;;;;;5070563;28;20045;-73
2023/12/07 13:26:20;;;;;;;112.45;30.35;;;;;;;;;;5062138;28;20036;-73
2023/12/07 13:28:46;;;;;;;108.60;29.60;;;;;;;;;;5055859;28;20044;-72
2023/12/07 13:31:13;;;;;;;93.47;26.85;;;;;;;;;;5045614;28;20538;-70
2023/12/07 13:33:40;;;;;;;105.05;28.42;;;;;;;;;;5036109;28;20057;-70
2023/12/07 13:36:06;;;;;;;103.32;28.13;;;;;;;;;;5042136;28;20033;-70
2023/12/07 13:38:33;;;;;;;104.80;29.08;;;;;;;;;;5042126;28;20037;-71
2023/12/07 13:40:59;;;;;;;110.38;30.48;;;;;;;;;;5056556;28;20040;-71
2023/12/07 13:43:25;;;;;;;113.80;32.53;;;;;;;;;;5061397;28;20037;-71
2023/12/07 13:45:51;;;;;;;104.28;30.35;;;;;;;;;;5050386;28;20067;-72
2023/12/07 13:48:18;;;;;;;93.38;26.90;;;;;;;;;;5060017;28;20159;-72
2023/12/07 13:50:44;;;;;;;107.55;28.38;;;;;;;;;;5054551;28;20032;-72
2023/12/07 13:53:10;;;;;;;102.85;28.25;;;;;;;;;;5054156;28;20044;-72
2023/12/07 13:55:37;;;;;;;95.32;28.88;;;;;;;;;;5051615;28;20041;-71
2023/12/07 13:58:03;;;;;;;99.25;30.40;;;;;;;;;;5045007;28;20053;-71
2023/12/07 14:00:29;;;;;;;100.40;30.77;;;;;;;;;;5058463;28;20136;-71
2023/12/07 14:02:55;;;;;;;101.70;30.50;;;;;;;;;;5055931;28;20547;-71
2023/12/07 14:05:21;;;;;;;105.55;29.70;;;;;;;;;;5057151;28;20044;-71
2023/12/07 14:07:47;;;;;;;114.93;33.83;;;;;;;;;;5057896;28;20075;-71
2023/12/07 14:10:15;;;;;;;116.85;32.60;;;;;;;;;;5055198;28;20044;-71
2023/12/07 14:12:41;;;;;;;110.22;31.85;;;;;;;;;;5059114;28;20364;-72
2023/12/07 14:15:07;;;;;;;102.90;29.95;;;;;;;;;;5057419;28;20062;-72